createdAt,value
2023-05-08T00:00:16.710Z,5.9
2023-05-08T00:01:17.865Z,5.9
2023-05-08T00:02:18.762Z,5.9
2023-05-08T00:03:19.768Z,5.9
2023-05-08T00:04:20.863Z,6
2023-05-08T00:05:21.848Z,6
2023-05-08T00:06:22.680Z,5.9
2023-05-08T00:07:23.739Z,5.9
2023-05-08T00:08:24.736Z,5.9
2023-05-08T00:09:25.743Z,5.8
2023-05-08T00:10:26.706Z,5.8
2023-05-08T00:11:27.729Z,5.8
2023-05-08T00:12:28.787Z,5.8
2023-05-08T00:13:29.728Z,5.8
2023-05-08T00:14:31.820Z,5.8
2023-05-08T00:15:32.780Z,5.7
2023-05-08T00:16:33.707Z,5.8
2023-05-08T00:17:34.752Z,5.8
2023-05-08T00:18:35.711Z,5.8
2023-05-08T00:19:36.699Z,5.7
2023-05-08T00:20:37.771Z,5.8
2023-05-08T00:21:38.720Z,5.8
2023-05-08T00:22:39.780Z,5.8
2023-05-08T00:23:40.701Z,5.8
2023-05-08T00:24:41.678Z,5.8
2023-05-08T00:25:42.720Z,5.8
2023-05-08T00:26:43.724Z,5.8
2023-05-08T00:27:44.718Z,5.7
2023-05-08T00:28:45.843Z,5.7
2023-05-08T00:29:46.700Z,5.7
2023-05-08T00:30:47.722Z,5.7
2023-05-08T00:31:48.714Z,5.7
2023-05-08T00:32:49.736Z,5.7
2023-05-08T00:33:50.722Z,5.6
2023-05-08T00:34:51.815Z,5.6
2023-05-08T00:35:52.724Z,5.6
2023-05-08T00:36:53.705Z,5.6
2023-05-08T00:37:54.707Z,5.5
2023-05-08T00:38:55.859Z,5.5
2023-05-08T00:39:56.685Z,5.5
2023-05-08T00:40:57.719Z,5.4
2023-05-08T00:41:58.705Z,5.5
2023-05-08T00:42:59.697Z,5.4
2023-05-08T00:44:00.838Z,5.5
2023-05-08T00:45:01.953Z,5.4
2023-05-08T00:46:02.858Z,5.5
2023-05-08T00:47:03.768Z,5.5
2023-05-08T00:48:04.729Z,5.4
2023-05-08T00:49:05.842Z,5.5
2023-05-08T00:50:06.717Z,5.5
2023-05-08T00:51:07.761Z,5.5
2023-05-08T00:52:08.862Z,5.5
2023-05-08T00:53:09.743Z,5.4
2023-05-08T00:54:10.807Z,5.4
2023-05-08T00:55:11.799Z,5.4
2023-05-08T00:56:12.741Z,5.4
2023-05-08T00:57:13.724Z,5.4
2023-05-08T00:58:14.718Z,5.4
2023-05-08T00:59:15.761Z,5.3
2023-05-08T01:00:16.748Z,5.3
2023-05-08T01:01:17.743Z,5.3
2023-05-08T01:02:18.727Z,5.3
2023-05-08T01:03:19.836Z,5.3
2023-05-08T01:04:20.877Z,5.4
2023-05-08T01:05:21.741Z,5.4
2023-05-08T01:06:22.751Z,5.4
2023-05-08T01:07:23.738Z,5.4
2023-05-08T01:08:24.720Z,5.4
2023-05-08T01:09:25.807Z,5.4
2023-05-08T01:10:26.741Z,5.5
2023-05-08T01:11:27.739Z,5.4
2023-05-08T01:12:28.718Z,5.4
2023-05-08T01:13:29.718Z,5.4
2023-05-08T01:14:30.816Z,5.4
2023-05-08T01:15:31.804Z,5.4
2023-05-08T01:16:32.830Z,5.4
2023-05-08T01:17:33.809Z,5.3
2023-05-08T01:18:34.751Z,5.3
2023-05-08T01:19:35.812Z,5.2
2023-05-08T01:20:36.763Z,5.2
2023-05-08T01:21:37.772Z,5.2
2023-05-08T01:22:38.728Z,5.2
2023-05-08T01:23:40.481Z,5.2
2023-05-08T01:24:41.747Z,5.2
2023-05-08T01:25:42.745Z,5.2
2023-05-08T01:26:43.703Z,5.2
2023-05-08T01:27:44.770Z,5.3
2023-05-08T01:28:45.739Z,5.2
2023-05-08T01:29:46.786Z,5.2
2023-05-08T01:30:47.782Z,5.3
2023-05-08T01:31:48.744Z,5.2
2023-05-08T01:32:49.739Z,5.2
2023-05-08T01:36:56.933Z,5.2
2023-05-08T01:37:57.864Z,5.2
2023-05-08T01:38:58.739Z,5.2
2023-05-08T01:39:59.757Z,5.2
2023-05-08T01:41:00.832Z,5.1
2023-05-08T01:42:01.789Z,5.1
2023-05-08T01:43:02.779Z,5.1
2023-05-08T01:44:03.785Z,5.1
2023-05-08T01:45:04.759Z,5.1
2023-05-08T01:46:05.773Z,5.1
2023-05-08T01:47:06.913Z,5.1
2023-05-08T01:48:07.848Z,5.2
2023-05-08T01:49:08.756Z,5.2
2023-05-08T01:50:09.847Z,5.1
2023-05-08T01:51:10.758Z,5.1
2023-05-08T01:52:11.767Z,5.1
2023-05-08T01:53:13.070Z,5.1
2023-05-08T01:54:13.736Z,5.1
2023-05-08T01:55:14.741Z,5.1
2023-05-08T01:56:15.758Z,5
2023-05-08T01:57:16.796Z,5
2023-05-08T01:58:17.720Z,5
2023-05-08T01:59:18.756Z,5
2023-05-08T02:00:19.739Z,5
2023-05-08T02:01:20.785Z,5
2023-05-08T02:02:21.852Z,5
2023-05-08T02:03:22.806Z,5
2023-05-08T02:04:24.138Z,5
2023-05-08T02:05:24.794Z,5
2023-05-08T02:06:25.777Z,5
2023-05-08T02:07:27.424Z,5
2023-05-08T02:08:29.097Z,5
2023-05-08T02:09:30.818Z,5
2023-05-08T02:10:31.775Z,5
2023-05-08T02:11:32.778Z,5
2023-05-08T02:12:33.760Z,5
2023-05-08T02:13:35.772Z,5
2023-05-08T02:14:36.842Z,4.8
2023-05-08T02:15:37.775Z,4.8
2023-05-08T02:16:38.770Z,4.7
2023-05-08T02:17:39.791Z,4.7
2023-05-08T02:18:40.774Z,4.7
2023-05-08T02:19:41.795Z,4.7
2023-05-08T02:20:42.772Z,4.7
2023-05-08T02:21:43.855Z,4.7
2023-05-08T02:22:44.844Z,4.7
2023-05-08T02:23:45.822Z,4.8
2023-05-08T02:24:47.217Z,4.7
2023-05-08T02:25:47.818Z,4.7
2023-05-08T02:26:48.778Z,4.7
2023-05-08T02:27:49.734Z,4.7
2023-05-08T02:28:50.784Z,4.7
2023-05-08T02:29:51.758Z,4.6
2023-05-08T02:30:52.798Z,4.6
2023-05-08T02:31:53.820Z,4.7
2023-05-08T02:32:54.818Z,4.6
2023-05-08T02:33:55.864Z,4.7
2023-05-08T02:35:02.907Z,4.6
2023-05-08T02:35:58.821Z,4.5
2023-05-08T02:36:59.900Z,4.5
2023-05-08T02:38:00.843Z,4.5
2023-05-08T02:39:01.799Z,4.5
2023-05-08T02:40:02.773Z,4.5
2023-05-08T02:41:03.804Z,4.5
2023-05-08T02:42:04.764Z,4.5
2023-05-08T02:43:05.835Z,4.5
2023-05-08T02:44:06.749Z,4.4
2023-05-08T02:45:07.774Z,4.4
2023-05-08T02:46:08.864Z,4.4
2023-05-08T02:47:09.834Z,4.4
2023-05-08T02:48:10.853Z,4.5
2023-05-08T02:49:11.747Z,4.5
2023-05-08T02:50:12.962Z,4.5
2023-05-08T02:51:13.771Z,4.5
2023-05-08T02:52:14.871Z,4.4
2023-05-08T02:53:16.757Z,4.5
2023-05-08T02:54:17.790Z,4.5
2023-05-08T02:55:18.811Z,4.5
2023-05-08T02:56:19.792Z,4.4
2023-05-08T02:57:20.832Z,4.3
2023-05-08T02:58:21.852Z,4.4
2023-05-08T02:59:22.819Z,4.4
2023-05-08T03:00:23.804Z,4.4
2023-05-08T03:01:24.754Z,4.4
2023-05-08T03:02:25.910Z,4.4
2023-05-08T03:03:27.028Z,4.3
2023-05-08T03:04:27.797Z,4.3
2023-05-08T03:05:28.791Z,4.3
2023-05-08T03:06:29.797Z,4.3
2023-05-08T03:07:30.790Z,4.2
2023-05-08T03:08:31.879Z,4.3
2023-05-08T03:09:32.796Z,4.2
2023-05-08T03:10:33.758Z,4.2
2023-05-08T03:11:34.796Z,4.3
2023-05-08T03:12:35.869Z,4.2
2023-05-08T03:13:37.391Z,4.1
2023-05-08T03:14:38.934Z,4
2023-05-08T03:15:39.857Z,4.1
2023-05-08T03:16:40.830Z,4.1
2023-05-08T03:17:41.780Z,4.2
2023-05-08T03:18:42.937Z,4.2
2023-05-08T03:19:43.778Z,4.2
2023-05-08T03:20:44.773Z,4.3
2023-05-08T03:21:45.794Z,4.3
2023-05-08T03:22:47.170Z,4.3
2023-05-08T03:23:47.811Z,4.3
2023-05-08T03:24:48.773Z,4.3
2023-05-08T03:25:49.772Z,4.3
2023-05-08T03:26:50.829Z,4.2
2023-05-08T03:27:51.801Z,4.2
2023-05-08T03:28:52.782Z,4.3
2023-05-08T03:29:53.791Z,4.3
2023-05-08T03:30:54.809Z,4.3
2023-05-08T03:31:55.862Z,4.4
2023-05-08T03:32:56.807Z,4.4
2023-05-08T03:33:58.109Z,4.5
2023-05-08T03:34:58.788Z,4.5
2023-05-08T03:35:59.809Z,4.5
2023-05-08T03:37:00.791Z,4.5
2023-05-08T03:38:01.815Z,4.5
2023-05-08T03:39:02.792Z,4.5
2023-05-08T03:40:03.863Z,4.5
2023-05-08T03:41:05.945Z,4.5
2023-05-08T03:42:06.827Z,4.5
2023-05-08T03:43:07.935Z,4.5
2023-05-08T03:44:08.810Z,4.5
2023-05-08T03:45:09.876Z,4.5
2023-05-08T03:46:10.807Z,4.5
2023-05-08T03:47:11.845Z,4.6
2023-05-08T03:48:13.193Z,4.5
2023-05-08T03:49:15.533Z,4.5
2023-05-08T03:50:16.771Z,4.5
2023-05-08T03:51:17.806Z,4.5
2023-05-08T03:52:18.827Z,4.5
2023-05-08T03:53:19.809Z,4.6
2023-05-08T03:54:20.834Z,4.7
2023-05-08T03:55:21.789Z,4.7
2023-05-08T03:56:24.674Z,4.8
2023-05-08T03:57:23.893Z,4.8
2023-05-08T03:58:24.999Z,4.8
2023-05-08T03:59:25.813Z,4.9
2023-05-08T04:00:27.333Z,4.9
2023-05-08T04:01:29.023Z,4.9
2023-05-08T04:02:29.914Z,4.9
2023-05-08T04:03:30.890Z,4.8
2023-05-08T04:04:31.817Z,4.9
2023-05-08T04:05:32.823Z,4.8
2023-05-08T04:06:42.413Z,4.9
2023-05-08T04:07:35.329Z,4.8
2023-05-08T04:08:37.298Z,4.8
2023-05-08T04:09:38.952Z,4.9
2023-05-08T04:10:39.867Z,4.9
2023-05-08T04:11:41.316Z,4.9
2023-05-08T04:12:42.864Z,4.9
2023-05-08T04:13:43.819Z,5
2023-05-08T04:14:44.838Z,5
2023-05-08T04:15:45.919Z,5
2023-05-08T04:16:46.853Z,4.9
2023-05-08T04:17:48.010Z,4.9
2023-05-08T04:18:48.844Z,5
2023-05-08T04:19:49.819Z,5
2023-05-08T04:20:50.821Z,5.1
2023-05-08T04:21:51.857Z,5.1
2023-05-08T04:22:52.839Z,5.1
2023-05-08T04:23:53.857Z,5.1
2023-05-08T04:24:54.922Z,5.1
2023-05-08T04:25:55.817Z,5.1
2023-05-08T04:26:56.822Z,5.1
2023-05-08T04:27:57.906Z,5
2023-05-08T04:28:58.821Z,5
2023-05-08T04:29:59.859Z,5
2023-05-08T04:31:01.237Z,5.1
2023-05-08T04:32:01.904Z,5.2
2023-05-08T04:33:02.972Z,5.2
2023-05-08T04:34:03.861Z,5.2
2023-05-08T04:35:04.859Z,5.2
2023-05-08T04:36:05.861Z,5.2
2023-05-08T04:37:06.838Z,5.2
2023-05-08T04:38:07.872Z,5.2
2023-05-08T04:39:08.879Z,5.2
2023-05-08T04:40:09.905Z,5
2023-05-08T04:41:10.902Z,5
2023-05-08T04:42:11.860Z,5
2023-05-08T04:43:12.885Z,5.1
2023-05-08T04:44:13.884Z,5.2
2023-05-08T04:45:15.029Z,5.2
2023-05-08T04:46:15.833Z,5.2
2023-05-08T04:47:16.861Z,5
2023-05-08T04:48:17.844Z,5
2023-05-08T04:49:19.523Z,5.1
2023-05-08T04:50:20.901Z,5.2
2023-05-08T04:51:21.907Z,5.2
2023-05-08T04:52:22.974Z,5.2
2023-05-08T04:53:23.888Z,5.1
2023-05-08T04:54:24.860Z,5.2
2023-05-08T04:55:25.877Z,5.1
2023-05-08T04:56:26.855Z,5.2
2023-05-08T04:57:27.865Z,5.1
2023-05-08T04:58:28.873Z,5.1
2023-05-08T04:59:30.282Z,5.2
2023-05-08T05:00:32.106Z,5.2
2023-05-08T05:01:32.941Z,5.2
2023-05-08T05:02:33.915Z,5.1
2023-05-08T05:03:34.857Z,5
2023-05-08T05:04:35.917Z,5.1
2023-05-08T05:05:38.874Z,5.2
2023-05-08T05:06:40.042Z,5.4
2023-05-08T05:07:40.939Z,5.6
2023-05-08T05:08:58.082Z,5.6
2023-05-08T05:09:59.857Z,5.8
2023-05-08T05:11:00.947Z,5.9
2023-05-08T05:12:01.857Z,5.9
2023-05-08T05:13:02.889Z,6
2023-05-08T05:14:04.776Z,6.2
2023-05-08T05:15:05.962Z,6.2
2023-05-08T05:16:07.130Z,6.1
2023-05-08T05:17:07.926Z,6
2023-05-08T05:18:08.889Z,5.9
2023-05-08T05:19:09.836Z,5.8
2023-05-08T05:20:10.924Z,5.6
2023-05-08T05:21:11.865Z,5.4
2023-05-08T05:22:12.961Z,5.4
2023-05-08T05:23:13.856Z,5.4
2023-05-08T05:24:14.886Z,5.4
2023-05-08T05:25:16.216Z,5.5
2023-05-08T05:26:16.885Z,5.6
2023-05-08T05:27:19.351Z,5.5
2023-05-08T05:28:18.878Z,5.4
2023-05-08T05:29:19.876Z,5.4
2023-05-08T05:30:21.278Z,5.6
2023-05-08T05:31:21.930Z,5.8
2023-05-08T05:32:22.945Z,5.9
2023-05-08T05:33:23.903Z,6
2023-05-08T05:34:24.887Z,6
2023-05-08T05:35:25.941Z,6
2023-05-08T05:36:26.871Z,5.9
2023-05-08T05:37:28.038Z,5.8
2023-05-08T05:38:29.873Z,5.5
2023-05-08T05:39:30.873Z,5.5
2023-05-08T05:40:31.895Z,5.5
2023-05-08T05:41:32.910Z,5.7
2023-05-08T05:42:33.853Z,5.7
2023-05-08T05:43:35.153Z,5.8
2023-05-08T05:44:36.399Z,5.9
2023-05-08T05:45:38.656Z,5.9
2023-05-08T05:46:41.002Z,5.9
2023-05-08T05:47:40.909Z,5.8
2023-05-08T05:48:41.871Z,5.8
2023-05-08T05:49:42.882Z,5.8
2023-05-08T05:50:43.882Z,5.9
2023-05-08T05:51:44.880Z,6
2023-05-08T05:52:45.953Z,6.1
2023-05-08T05:53:47.713Z,6.2
2023-05-08T05:54:48.892Z,6.2
2023-05-08T05:55:49.890Z,6.1
2023-05-08T05:56:50.953Z,6
2023-05-08T05:57:51.872Z,5.9
2023-05-08T05:58:52.872Z,5.9
2023-05-08T05:59:54.803Z,5.9
2023-05-08T06:00:55.033Z,6.1
2023-05-08T06:01:55.906Z,6.1
2023-05-08T06:02:57.178Z,6
2023-05-08T06:03:57.982Z,6
2023-05-08T06:04:58.860Z,6
2023-05-08T06:05:59.963Z,6.1
2023-05-08T06:07:00.857Z,6.1
2023-05-08T06:08:01.900Z,6.2
2023-05-08T06:09:02.912Z,6.2
2023-05-08T06:10:04.369Z,6.3
2023-05-08T06:11:05.969Z,6.5
2023-05-08T06:12:06.994Z,6.6
2023-05-08T06:13:07.984Z,6.7
2023-05-08T06:14:08.892Z,6.8
2023-05-08T06:15:10.558Z,6.9
2023-05-08T06:16:11.945Z,7.1
2023-05-08T06:17:13.004Z,7.1
2023-05-08T06:18:13.914Z,7.2
2023-05-08T06:19:14.911Z,7.3
2023-05-08T06:20:15.943Z,7.5
2023-05-08T06:21:16.935Z,7.6
2023-05-08T06:22:17.875Z,7.5
2023-05-08T06:23:18.917Z,7.4
2023-05-08T06:24:19.956Z,7.4
2023-05-08T06:25:20.895Z,7.5
2023-05-08T06:26:23.283Z,7.4
2023-05-08T06:27:22.920Z,7.3
2023-05-08T06:28:23.951Z,7.2
2023-05-08T06:29:24.932Z,7.3
2023-05-08T06:30:25.902Z,7.3
2023-05-08T06:31:27.010Z,7.2
2023-05-08T06:32:27.905Z,7.1
2023-05-08T06:33:28.932Z,7.2
2023-05-08T06:34:29.939Z,7.3
2023-05-08T06:35:30.935Z,7.3
2023-05-08T06:36:31.896Z,7.3
2023-05-08T06:37:32.874Z,7.3
2023-05-08T06:38:33.843Z,7.4
2023-05-08T06:39:34.963Z,7.5
2023-05-08T06:40:35.931Z,7.5
2023-05-08T06:41:36.954Z,7.5
2023-05-08T06:42:37.964Z,7.4
2023-05-08T06:43:38.851Z,7.4
2023-05-08T06:44:39.910Z,7.3
2023-05-08T06:45:40.880Z,7.3
2023-05-08T06:46:41.986Z,7.3
2023-05-08T06:47:42.944Z,7.1
2023-05-08T06:48:43.954Z,7
2023-05-08T06:49:44.914Z,7
2023-05-08T06:50:45.974Z,7.1
2023-05-08T06:51:46.907Z,7.1
2023-05-08T06:52:47.933Z,7.1
2023-05-08T06:53:49.021Z,7.2
2023-05-08T06:54:49.915Z,7.4
2023-05-08T06:55:50.914Z,7.6
2023-05-08T06:56:52.034Z,7.8
2023-05-08T06:57:52.917Z,7.8
2023-05-08T06:59:04.803Z,7.7
2023-05-08T06:59:56.239Z,7.6
2023-05-08T07:00:56.962Z,7.7
2023-05-08T07:01:57.981Z,7.7
2023-05-08T07:02:59.019Z,7.7
2023-05-08T07:04:00.019Z,7.7
2023-05-08T07:05:00.963Z,7.7
2023-05-08T07:06:02.158Z,7.9
2023-05-08T07:07:03.940Z,8.1
2023-05-08T07:08:04.943Z,8.3
2023-05-08T07:09:05.934Z,8.5
2023-05-08T07:10:07.879Z,8.5
2023-05-08T07:11:08.274Z,8.3
2023-05-08T07:12:08.958Z,8.2
2023-05-08T07:13:10.093Z,8.1
2023-05-08T07:14:10.916Z,8.1
2023-05-08T07:15:24.443Z,8.1
2023-05-08T07:16:13.754Z,8.1
2023-05-08T07:17:14.914Z,8.2
2023-05-08T07:18:16.155Z,8.3
2023-05-08T07:19:16.901Z,8.4
2023-05-08T07:20:17.918Z,8.5
2023-05-08T07:21:19.034Z,8.5
2023-05-08T07:22:19.940Z,8.5
2023-05-08T07:23:20.996Z,8.6
2023-05-08T07:24:21.892Z,8.6
2023-05-08T07:25:22.917Z,8.5
2023-05-08T07:26:24.116Z,8.4
2023-05-08T07:27:24.891Z,8.3
2023-05-08T07:28:25.917Z,8.4
2023-05-08T07:29:27.010Z,8.5
2023-05-08T07:30:28.624Z,8.4
2023-05-08T07:31:29.886Z,8.3
2023-05-08T07:32:30.999Z,8.3
2023-05-08T07:33:31.994Z,8.1
2023-05-08T07:34:33.037Z,8
2023-05-08T07:35:33.903Z,8
2023-05-08T07:36:35.201Z,8
2023-05-08T07:37:35.935Z,8.1
2023-05-08T07:38:36.975Z,8.1
2023-05-08T07:39:37.916Z,8.1
2023-05-08T07:40:39.300Z,8.2
2023-05-08T07:41:40.000Z,8.2
2023-05-08T07:42:40.932Z,8.2
2023-05-08T07:43:41.914Z,8.3
2023-05-08T07:44:53.466Z,8.3
2023-05-08T07:45:43.992Z,8.3
2023-05-08T07:46:44.983Z,8.4
2023-05-08T07:47:45.920Z,8.5
2023-05-08T07:48:46.876Z,8.6
2023-05-08T07:49:47.976Z,8.7
2023-05-08T07:50:49.579Z,8.8
2023-05-08T07:51:50.942Z,8.9
2023-05-08T07:52:51.926Z,9.2
2023-05-08T07:53:53.513Z,9.4
2023-05-08T07:54:54.907Z,9.4
2023-05-08T07:55:55.950Z,9.5
2023-05-08T07:56:56.970Z,9.6
2023-05-08T07:57:58.984Z,9.6
2023-05-08T07:59:00.748Z,9.5
2023-05-08T08:00:02.068Z,9.5
2023-05-08T08:01:04.311Z,9.5
2023-05-08T08:02:06.001Z,9.5
2023-05-08T08:03:07.831Z,9.5
2023-05-08T08:04:08.982Z,9.7
2023-05-08T08:05:10.717Z,9.7
2023-05-08T08:06:12.150Z,9.7
2023-05-08T08:07:12.980Z,9.9
2023-05-08T08:08:14.028Z,9.8
2023-05-08T08:09:14.932Z,9.8
2023-05-08T08:10:16.317Z,9.8
2023-05-08T08:11:17.010Z,9.8
2023-05-08T08:12:17.892Z,9.7
2023-05-08T08:13:19.118Z,9.6
2023-05-08T08:14:20.097Z,9.7
2023-05-08T08:15:20.970Z,9.8
2023-05-08T08:16:21.991Z,9.8
2023-05-08T08:17:23.389Z,10
2023-05-08T08:18:25.170Z,10.2
2023-05-08T08:19:25.970Z,10.2
2023-05-08T08:20:26.961Z,10
2023-05-08T08:21:28.014Z,10
2023-05-08T08:22:28.994Z,10
2023-05-08T08:23:30.302Z,10
2023-05-08T08:24:32.166Z,10.2
2023-05-08T08:25:33.198Z,10.3
2023-05-08T08:26:33.991Z,10.2
2023-05-08T08:27:34.971Z,10.2
2023-05-08T08:28:35.995Z,10.3
2023-05-08T08:29:37.048Z,10.3
2023-05-08T08:30:37.957Z,10.4
2023-05-08T08:31:39.126Z,10.5
2023-05-08T08:32:40.040Z,10.6
2023-05-08T08:33:41.013Z,10.8
2023-05-08T08:34:42.669Z,10.9
2023-05-08T08:35:43.952Z,10.9
2023-05-08T08:36:44.932Z,10.9
2023-05-08T08:37:45.975Z,10.9
2023-05-08T08:38:47.094Z,11
2023-05-08T08:39:47.952Z,10.9
2023-05-08T08:40:49.004Z,10.9
2023-05-08T08:41:50.371Z,11
2023-05-08T08:42:52.644Z,11.1
2023-05-08T08:43:54.033Z,11.2
2023-05-08T08:44:55.104Z,11.3
2023-05-08T08:45:56.184Z,11.4
2023-05-08T08:46:56.953Z,11.5
2023-05-08T08:47:57.982Z,11.6
2023-05-08T08:48:59.032Z,11.7
2023-05-08T08:50:00.677Z,11.7
2023-05-08T08:51:01.958Z,11.9
2023-05-08T08:52:02.988Z,11.7
2023-05-08T08:53:03.976Z,11.6
2023-05-08T08:54:05.179Z,11.5
2023-05-08T08:55:06.187Z,11.4
2023-05-08T08:56:06.931Z,11.2
2023-05-08T08:57:07.946Z,11.2
2023-05-08T08:58:08.952Z,11.3
2023-05-08T08:59:10.679Z,11.3
2023-05-08T09:00:12.219Z,11.4
2023-05-08T09:01:13.122Z,11.6
2023-05-08T09:02:14.020Z,11.7
2023-05-08T09:03:15.081Z,11.9
2023-05-08T09:04:16.016Z,12
2023-05-08T09:05:17.002Z,12.1
2023-05-08T09:06:17.976Z,12.1
2023-05-08T09:07:19.582Z,11.9
2023-05-08T09:08:20.995Z,11.8
2023-05-08T09:09:21.950Z,11.7
2023-05-08T09:10:22.993Z,11.7
2023-05-08T09:11:23.983Z,11.6
2023-05-08T09:12:24.987Z,11.7
2023-05-08T09:13:26.042Z,12
2023-05-08T09:14:26.973Z,12.2
2023-05-08T09:15:28.050Z,12.3
2023-05-08T09:16:29.036Z,12.4
2023-05-08T09:17:30.386Z,12.3
2023-05-08T09:18:31.013Z,12.4
2023-05-08T09:19:31.993Z,12.3
2023-05-08T09:20:32.973Z,12.3
2023-05-08T09:21:33.992Z,12.1
2023-05-08T09:22:34.980Z,12.1
2023-05-08T09:23:35.956Z,12.1
2023-05-08T09:24:36.975Z,12.1
2023-05-08T09:25:37.997Z,12.2
2023-05-08T09:26:38.958Z,12.3
2023-05-08T09:27:39.977Z,12.4
2023-05-08T09:28:41.040Z,12.2
2023-05-08T09:29:42.001Z,12
2023-05-08T09:30:43.195Z,12
2023-05-08T09:31:44.039Z,12
2023-05-08T09:32:45.065Z,11.9
2023-05-08T09:33:45.986Z,11.7
2023-05-08T09:34:47.091Z,11.6
2023-05-08T09:35:48.448Z,11.6
2023-05-08T09:36:50.069Z,11.7
2023-05-08T09:37:51.292Z,11.7
2023-05-08T09:38:53.369Z,11.9
2023-05-08T09:39:54.038Z,12
2023-05-08T09:40:55.012Z,12.1
2023-05-08T09:41:56.354Z,12.1
2023-05-08T09:42:57.014Z,12.1
2023-05-08T09:43:58.035Z,12
2023-05-08T09:44:59.011Z,12.1
2023-05-08T09:46:00.385Z,12.2
2023-05-08T09:47:01.038Z,12.3
2023-05-08T09:48:02.778Z,12.4
2023-05-08T09:49:04.421Z,12.4
2023-05-08T09:50:06.070Z,12.4
2023-05-08T09:51:07.044Z,12.4
2023-05-08T09:52:08.516Z,12.5
2023-05-08T09:53:10.330Z,12.6
2023-05-08T09:54:11.032Z,12.5
2023-05-08T09:55:12.032Z,12.3
2023-05-08T09:56:13.035Z,12.2
2023-05-08T09:57:14.007Z,12.2
2023-05-08T09:58:15.356Z,12.2
2023-05-08T09:59:17.392Z,12.3
2023-05-08T10:00:19.131Z,12.4
2023-05-08T10:01:20.250Z,12.4
2023-05-08T10:02:21.098Z,12.4
2023-05-08T10:03:22.220Z,12.3
2023-05-08T10:04:23.012Z,12.3
2023-05-08T10:05:24.191Z,12.4
2023-05-08T10:06:25.297Z,12.4
2023-05-08T10:07:27.033Z,12.5
2023-05-08T10:08:28.013Z,12.5
2023-05-08T10:09:39.202Z,12.5
2023-05-08T10:10:30.370Z,12.4
2023-05-08T10:11:31.073Z,12.3
2023-05-08T10:12:32.017Z,12.3
2023-05-08T10:13:33.323Z,12.2
2023-05-08T10:14:35.016Z,12.1
2023-05-08T10:15:36.876Z,12.1
2023-05-08T10:16:38.212Z,11.9
2023-05-08T10:17:39.030Z,11.9
2023-05-08T10:18:40.047Z,11.9
2023-05-08T10:19:41.312Z,12.2
2023-05-08T10:20:42.037Z,12.3
2023-05-08T10:21:43.716Z,12.4
2023-05-08T10:22:45.041Z,12.3
2023-05-08T10:23:46.015Z,12.4
2023-05-08T10:24:47.037Z,12.5
2023-05-08T10:25:48.092Z,12.6
2023-05-08T10:27:02.902Z,12.5
2023-05-08T10:27:50.034Z,12.5
2023-05-08T10:28:51.036Z,12.5
2023-05-08T10:29:52.315Z,12.7
2023-05-08T10:30:54.050Z,12.7
2023-05-08T10:31:55.214Z,12.9
2023-05-08T10:32:56.068Z,13.1
2023-05-08T10:33:58.520Z,13.3
2023-05-08T10:35:00.096Z,13.4
2023-05-08T10:36:01.050Z,13.5
2023-05-08T10:37:02.074Z,13.6
2023-05-08T10:38:03.033Z,13.4
2023-05-08T10:39:04.139Z,13.5
2023-05-08T10:40:05.121Z,13.4
2023-05-08T10:41:06.066Z,13.4
2023-05-08T10:42:07.092Z,13.5
2023-05-08T10:43:08.084Z,13.5
2023-05-08T10:44:09.079Z,13.6
2023-05-08T10:45:10.109Z,13.6
2023-05-08T10:46:11.163Z,13.5
2023-05-08T10:47:12.221Z,13.6
2023-05-08T10:48:13.092Z,13.5
2023-05-08T10:49:14.118Z,13.5
2023-05-08T10:50:15.391Z,13.3
2023-05-08T10:51:16.032Z,13.2
2023-05-08T10:52:17.092Z,13.1
2023-05-08T10:53:18.367Z,13.1
2023-05-08T10:54:19.004Z,13.3
2023-05-08T10:55:20.076Z,13.3
2023-05-08T10:56:21.036Z,13.4
2023-05-08T10:57:22.059Z,13.4
2023-05-08T10:58:23.538Z,13.4
2023-05-08T10:59:25.202Z,13.3
2023-05-08T11:00:27.097Z,13.4
2023-05-08T11:01:28.240Z,13.4
2023-05-08T11:02:29.206Z,13.4
2023-05-08T11:03:32.443Z,13.5
2023-05-08T11:04:31.072Z,13.7
2023-05-08T11:05:32.100Z,13.8
2023-05-08T11:06:33.062Z,13.9
2023-05-08T11:07:34.071Z,14
2023-05-08T11:08:35.035Z,14.1
2023-05-08T11:09:36.103Z,14.2
2023-05-08T11:10:37.050Z,14.2
2023-05-08T11:11:38.057Z,14.1
2023-05-08T11:12:39.417Z,14.2
2023-05-08T11:13:40.233Z,14.2
2023-05-08T11:14:41.653Z,14.1
2023-05-08T11:15:43.146Z,14
2023-05-08T11:16:44.140Z,13.7
2023-05-08T11:17:45.188Z,13.7
2023-05-08T11:18:49.602Z,13.9
2023-05-08T11:19:47.112Z,14.1
2023-05-08T11:20:48.329Z,14.3
2023-05-08T11:21:49.072Z,14.5
2023-05-08T11:22:50.370Z,14.4
2023-05-08T11:23:51.835Z,14.6
2023-05-08T11:24:53.154Z,14.8
2023-05-08T11:25:54.034Z,14.9
2023-05-08T11:26:55.030Z,15
2023-05-08T11:27:56.072Z,15
2023-05-08T11:28:57.128Z,14.9
2023-05-08T11:29:58.037Z,14.9
2023-05-08T11:31:00.060Z,14.7
2023-05-08T11:32:01.282Z,14.7
2023-05-08T11:33:02.168Z,14.8
2023-05-08T11:34:03.391Z,14.8
2023-05-08T11:35:05.311Z,14.9
2023-05-08T11:36:06.117Z,14.9
2023-05-08T11:37:07.082Z,14.8
2023-05-08T11:38:08.034Z,14.8
2023-05-08T11:39:09.072Z,14.7
2023-05-08T11:40:10.995Z,14.6
2023-05-08T11:41:12.229Z,14.6
2023-05-08T11:42:13.061Z,14.7
2023-05-08T11:43:14.051Z,14.8
2023-05-08T11:44:15.296Z,15
2023-05-08T11:45:16.129Z,15.2
2023-05-08T11:46:17.522Z,15.5
2023-05-08T11:47:18.677Z,15.6
2023-05-08T11:48:20.557Z,15.6
2023-05-08T11:49:24.912Z,15.4
2023-05-08T11:50:24.090Z,15.1
2023-05-08T11:51:25.490Z,15.1
2023-05-08T11:52:27.131Z,15.2
2023-05-08T11:53:28.060Z,15.3
2023-05-08T11:54:29.053Z,15.3
2023-05-08T11:55:30.072Z,15.4
2023-05-08T11:56:31.092Z,15.5
2023-05-08T11:57:32.144Z,15.8
2023-05-08T11:58:33.080Z,15.8
2023-05-08T11:59:34.065Z,15.6
2023-05-08T12:00:50.455Z,15.3
2023-05-08T12:02:54.142Z,15.4
2023-05-08T12:03:55.241Z,15.4
2023-05-08T12:04:56.646Z,15.3
2023-05-08T12:05:58.055Z,15.4
2023-05-08T12:06:59.074Z,15.5
2023-05-08T12:08:00.096Z,15.6
2023-05-08T12:09:01.098Z,15.6
2023-05-08T12:10:02.251Z,15.6
2023-05-08T12:11:03.720Z,15.5
2023-05-08T12:12:05.074Z,15.2
2023-05-08T12:13:06.142Z,15.2
2023-05-08T12:14:07.122Z,15.3
2023-05-08T12:15:08.132Z,15.6
2023-05-08T12:16:09.092Z,15.8
2023-05-08T12:17:10.177Z,15.6
2023-05-08T12:18:11.113Z,15.6
2023-05-08T12:19:12.588Z,15.8
2023-05-08T12:20:14.428Z,15.9
2023-05-08T12:21:15.069Z,15.9
2023-05-08T12:22:16.123Z,16
2023-05-08T12:23:17.163Z,16
2023-05-08T12:24:18.111Z,16.2
2023-05-08T12:25:19.171Z,16.2
2023-05-08T12:26:20.099Z,15.8
2023-05-08T12:27:21.154Z,15.6
2023-05-08T12:28:22.071Z,15.4
2023-05-08T12:29:23.190Z,15.2
2023-05-08T12:30:24.112Z,15
2023-05-08T12:31:25.347Z,14.9
2023-05-08T12:32:29.059Z,15.2
2023-05-08T12:33:28.112Z,15.3
2023-05-08T12:34:29.079Z,15.5
2023-05-08T12:35:30.076Z,15.6
2023-05-08T12:36:31.049Z,15.7
2023-05-08T12:37:32.213Z,16
2023-05-08T12:38:33.089Z,16
2023-05-08T12:39:34.092Z,16.2
2023-05-08T12:40:35.148Z,16.3
2023-05-08T12:41:36.712Z,16.4
2023-05-08T12:42:38.158Z,16.3
2023-05-08T12:43:39.549Z,16.4
2023-05-08T12:44:41.656Z,16.2
2023-05-08T12:45:43.209Z,16.2
2023-05-08T12:46:44.156Z,16.2
2023-05-08T12:47:45.126Z,16.2
2023-05-08T12:48:46.281Z,16.3
2023-05-08T12:49:47.443Z,16.1
2023-05-08T12:50:48.192Z,16
2023-05-08T12:51:50.150Z,15.7
2023-05-08T12:52:51.886Z,15.6
2023-05-08T12:53:52.091Z,15.6
2023-05-08T12:54:53.094Z,15.7
2023-05-08T12:55:54.129Z,15.8
2023-05-08T12:56:55.623Z,15.9
2023-05-08T12:57:57.133Z,16.1
2023-05-08T12:58:58.130Z,16.4
2023-05-08T13:00:00.918Z,16.6
2023-05-08T13:01:00.206Z,16.9
2023-05-08T13:02:01.271Z,17.1
2023-05-08T13:03:02.304Z,17.1
2023-05-08T13:04:03.429Z,17
2023-05-08T13:05:04.219Z,16.3
2023-05-08T13:06:05.127Z,16
2023-05-08T13:07:06.137Z,15.7
2023-05-08T13:08:07.093Z,15.6
2023-05-08T13:09:08.139Z,15.6
2023-05-08T13:10:09.146Z,15.8
2023-05-08T13:11:11.117Z,16.1
2023-05-08T13:12:15.196Z,16.4
2023-05-08T13:13:16.124Z,16.6
2023-05-08T13:14:17.172Z,16.6
2023-05-08T13:15:18.524Z,16.5
2023-05-08T13:16:20.129Z,16.6
2023-05-08T13:17:21.192Z,16.7
2023-05-08T13:18:22.125Z,17
2023-05-08T13:19:23.156Z,17
2023-05-08T13:20:24.334Z,16.8
2023-05-08T13:21:27.223Z,16.5
2023-05-08T13:22:26.170Z,16.5
2023-05-08T13:23:27.096Z,16.5
2023-05-08T13:24:28.932Z,16.6
2023-05-08T13:25:30.117Z,16.8
2023-05-08T13:26:31.109Z,17
2023-05-08T13:27:32.111Z,16.9
2023-05-08T13:28:33.173Z,16.7
2023-05-08T13:29:35.176Z,16.5
2023-05-08T13:30:36.112Z,16.6
2023-05-08T13:31:37.720Z,16.5
2023-05-08T13:32:39.199Z,16.7
2023-05-08T13:33:40.254Z,16.6
2023-05-08T13:34:47.485Z,16.6
2023-05-08T13:35:42.246Z,16.2
2023-05-08T13:36:43.134Z,16
2023-05-08T13:37:44.302Z,16.1
2023-05-08T13:38:45.200Z,16.1
2023-05-08T13:39:47.164Z,16
2023-05-08T13:40:48.195Z,15.8
2023-05-08T13:41:49.365Z,15.9
2023-05-08T13:42:50.155Z,15.8
2023-05-08T13:43:51.134Z,15.8
2023-05-08T13:44:52.182Z,16
2023-05-08T13:45:53.133Z,16
2023-05-08T13:46:54.239Z,16.1
2023-05-08T13:47:55.176Z,16.1
2023-05-08T13:48:56.154Z,16.2
2023-05-08T13:49:57.116Z,16.1
2023-05-08T13:50:58.404Z,16.1
2023-05-08T13:51:59.141Z,16.2
2023-05-08T13:53:00.137Z,16.2
2023-05-08T13:54:01.172Z,16.1
2023-05-08T13:55:02.154Z,16
2023-05-08T13:56:03.153Z,15.9
2023-05-08T13:57:04.136Z,16
2023-05-08T13:58:05.172Z,16.2
2023-05-08T13:59:06.192Z,16.3
2023-05-08T14:00:07.151Z,16.5